sensor_id;sensor_type;location;lat;lon;timestamp;pressure;altitude;pressure_sealevel;temperature;humidity
64158;BME280;50449;51.528;5.076;2023-02-13T00:01:15;103629.16;;;9.45;65.97
64158;BME280;50449;51.528;5.076;2023-02-13T00:03:40;103620.19;;;9.45;65.86
64158;BME280;50449;51.528;5.076;2023-02-13T00:06:06;103622.88;;;9.45;66.20
64158;BME280;50449;51.528;5.076;2023-02-13T00:08:31;103617.50;;;9.45;66.01
64158;BME280;50449;51.528;5.076;2023-02-13T00:10:57;103623.06;;;9.43;65.62
64158;BME280;50449;51.528;5.076;2023-02-13T00:13:22;103615.81;;;9.44;66.15
64158;BME280;50449;51.528;5.076;2023-02-13T00:15:58;103619.53;;;9.43;65.87
64158;BME280;50449;51.528;5.076;2023-02-13T00:18:25;103608.75;;;9.43;66.04
64158;BME280;50449;51.528;5.076;2023-02-13T00:20:58;103615.13;;;9.42;66.07
64158;BME280;50449;51.528;5.076;2023-02-13T00:23:24;103604.34;;;9.42;66.20
64158;BME280;50449;51.528;5.076;2023-02-13T00:25:49;103614.28;;;9.41;66.09
64158;BME280;50449;51.528;5.076;2023-02-13T00:28:14;103606.19;;;9.41;66.42
64158;BME280;50449;51.528;5.076;2023-02-13T00:30:40;103606.19;;;9.41;66.12
64158;BME280;50449;51.528;5.076;2023-02-13T00:33:05;103603.66;;;9.40;66.34
64158;BME280;50449;51.528;5.076;2023-02-13T00:35:31;103600.97;;;9.40;66.39
64158;BME280;50449;51.528;5.076;2023-02-13T00:37:56;103601.97;;;9.39;66.42
64158;BME280;50449;51.528;5.076;2023-02-13T00:40:21;103588.50;;;9.39;66.47
64158;BME280;50449;51.528;5.076;2023-02-13T00:42:47;103592.03;;;9.39;66.76
64158;BME280;50449;51.528;5.076;2023-02-13T00:45:12;103593.88;;;9.39;66.53
64158;BME280;50449;51.528;5.076;2023-02-13T00:47:37;103599.44;;;9.37;66.55
64158;BME280;50449;51.528;5.076;2023-02-13T00:50:03;103592.38;;;9.36;66.44
64158;BME280;50449;51.528;5.076;2023-02-13T00:52:29;103587.81;;;9.37;66.38
64158;BME280;50449;51.528;5.076;2023-02-13T00:54:54;103588.66;;;9.37;66.72
64158;BME280;50449;51.528;5.076;2023-02-13T00:57:20;103593.19;;;9.37;66.61
64158;BME280;50449;51.528;5.076;2023-02-13T00:59:45;103589.66;;;9.36;66.29
64158;BME280;50449;51.528;5.076;2023-02-13T01:02:10;103585.28;;;9.35;66.50
64158;BME280;50449;51.528;5.076;2023-02-13T01:04:36;103586.13;;;9.36;66.51
64158;BME280;50449;51.528;5.076;2023-02-13T01:07:01;103588.81;;;9.36;66.82
64158;BME280;50449;51.528;5.076;2023-02-13T01:09:27;103584.28;;;9.36;66.56
64158;BME280;50449;51.528;5.076;2023-02-13T01:11:52;103579.03;;;9.35;66.32
64158;BME280;50449;51.528;5.076;2023-02-13T01:14:17;103579.22;;;9.33;66.49
64158;BME280;50449;51.528;5.076;2023-02-13T01:16:43;103593.53;;;9.34;66.47
64158;BME280;50449;51.528;5.076;2023-02-13T01:19:08;103584.59;;;9.33;66.37
64158;BME280;50449;51.528;5.076;2023-02-13T01:21:33;103582.91;;;9.32;66.58
64158;BME280;50449;51.528;5.076;2023-02-13T01:24:02;103587.31;;;9.33;66.60
64158;BME280;50449;51.528;5.076;2023-02-13T01:26:28;103585.59;;;9.32;66.46
64158;BME280;50449;51.528;5.076;2023-02-13T01:28:53;103584.75;;;9.31;66.68
64158;BME280;50449;51.528;5.076;2023-02-13T01:31:19;103584.75;;;9.31;66.62
64158;BME280;50449;51.528;5.076;2023-02-13T01:33:45;103580.19;;;9.32;66.79
64158;BME280;50449;51.528;5.076;2023-02-13T01:36:11;103577.69;;;9.30;66.82
64158;BME280;50449;51.528;5.076;2023-02-13T01:38:38;103575.81;;;9.31;66.33
64158;BME280;50449;51.528;5.076;2023-02-13T01:41:05;103576.84;;;9.30;66.69
64158;BME280;50449;51.528;5.076;2023-02-13T01:43:45;103577.00;;;9.28;66.95
64158;BME280;50449;51.528;5.076;2023-02-13T01:46:11;103574.31;;;9.28;66.64
64158;BME280;50449;51.528;5.076;2023-02-13T01:48:38;103568.91;;;9.28;66.64
64158;BME280;50449;51.528;5.076;2023-02-13T01:51:08;103560.81;;;9.28;66.72
64158;BME280;50449;51.528;5.076;2023-02-13T01:53:48;103563.66;;;9.27;66.89
64158;BME280;50449;51.528;5.076;2023-02-13T01:56:20;103566.38;;;9.27;66.65
64158;BME280;50449;51.528;5.076;2023-02-13T01:58:49;103571.75;;;9.27;66.81
64158;BME280;50449;51.528;5.076;2023-02-13T02:01:17;103572.78;;;9.26;66.72
64158;BME280;50449;51.528;5.076;2023-02-13T02:03:51;103573.63;;;9.26;66.89
64158;BME280;50449;51.528;5.076;2023-02-13T02:06:25;103570.09;;;9.26;66.91
64158;BME280;50449;51.528;5.076;2023-02-13T02:08:53;103567.53;;;9.24;66.94
64158;BME280;50449;51.528;5.076;2023-02-13T02:14:17;103568.56;;;9.23;66.99
64158;BME280;50449;51.528;5.076;2023-02-13T02:16:43;103570.41;;;9.23;66.89
64158;BME280;50449;51.528;5.076;2023-02-13T02:19:15;103565.19;;;9.21;67.11
64158;BME280;50449;51.528;5.076;2023-02-13T02:22:03;103564.34;;;9.21;67.17
64158;BME280;50449;51.528;5.076;2023-02-13T02:27:45;103560.81;;;9.20;67.22
64158;BME280;50449;51.528;5.076;2023-02-13T02:33:20;103579.16;;;9.17;67.21
64158;BME280;50449;51.528;5.076;2023-02-13T02:44:10;103556.88;;;9.15;67.27
64158;BME280;50449;51.528;5.076;2023-02-13T02:46:52;103554.38;;;9.13;67.30
64158;BME280;50449;51.528;5.076;2023-02-13T02:49:41;103558.94;;;9.13;67.32
64158;BME280;50449;51.528;5.076;2023-02-13T02:52:41;103556.38;;;9.11;67.39
64158;BME280;50449;51.528;5.076;2023-02-13T02:55:23;103555.56;;;9.10;67.64
64158;BME280;50449;51.528;5.076;2023-02-13T02:58:20;103551.16;;;9.09;67.54
64158;BME280;50449;51.528;5.076;2023-02-13T03:01:08;103549.47;;;9.08;67.26
64158;BME280;50449;51.528;5.076;2023-02-13T03:03:56;103550.63;;;9.06;67.83
64158;BME280;50449;51.528;5.076;2023-02-13T03:06:59;103550.78;;;9.04;67.60
64158;BME280;50449;51.528;5.076;2023-02-13T03:09:33;103546.41;;;9.03;67.56
64158;BME280;50449;51.528;5.076;2023-02-13T03:12:22;103553.66;;;9.03;67.61
64158;BME280;50449;51.528;5.076;2023-02-13T03:15:07;103546.75;;;9.00;67.85
64158;BME280;50449;51.528;5.076;2023-02-13T03:17:33;103546.75;;;9.00;67.65
64158;BME280;50449;51.528;5.076;2023-02-13T03:20:39;103539.66;;;8.99;67.37
64158;BME280;50449;51.528;5.076;2023-02-13T03:28:53;103534.78;;;8.95;67.84
64158;BME280;50449;51.528;5.076;2023-02-13T03:31:54;103550.94;;;8.95;67.80
64158;BME280;50449;51.528;5.076;2023-02-13T03:34:29;103551.94;;;8.94;67.64
64158;BME280;50449;51.528;5.076;2023-02-13T03:37:26;103548.56;;;8.92;67.59
64158;BME280;50449;51.528;5.076;2023-02-13T03:42:52;103551.59;;;8.88;67.59
64158;BME280;50449;51.528;5.076;2023-02-13T03:45:29;103553.44;;;8.88;67.87
64158;BME280;50449;51.528;5.076;2023-02-13T03:48:17;103551.78;;;8.87;67.83
64158;BME280;50449;51.528;5.076;2023-02-13T03:51:02;103551.09;;;8.85;67.83
64158;BME280;50449;51.528;5.076;2023-02-13T03:53:32;103552.06;;;8.84;67.85
64158;BME280;50449;51.528;5.076;2023-02-13T03:56:01;103554.06;;;8.82;67.78
64158;BME280;50449;51.528;5.076;2023-02-13T03:58:49;103555.94;;;8.81;67.74
64158;BME280;50449;51.528;5.076;2023-02-13T04:01:35;103554.25;;;8.80;68.18
64158;BME280;50449;51.528;5.076;2023-02-13T04:04:10;103557.94;;;8.79;67.98
64158;BME280;50449;51.528;5.076;2023-02-13T04:06:48;103557.09;;;8.79;67.90
64158;BME280;50449;51.528;5.076;2023-02-13T04:09:19;103559.97;;;8.77;67.92
64158;BME280;50449;51.528;5.076;2023-02-13T04:14:49;103542.28;;;8.75;67.88
64158;BME280;50449;51.528;5.076;2023-02-13T04:17:26;103551.34;;;8.74;68.03
64158;BME280;50449;51.528;5.076;2023-02-13T04:19:54;103549.81;;;8.71;68.13
64158;BME280;50449;51.528;5.076;2023-02-13T04:22:19;103541.75;;;8.71;68.00
64158;BME280;50449;51.528;5.076;2023-02-13T04:24:45;103548.97;;;8.71;67.93
64158;BME280;50449;51.528;5.076;2023-02-13T04:27:13;103551.00;;;8.69;67.97
64158;BME280;50449;51.528;5.076;2023-02-13T04:29:39;103550.16;;;8.68;68.16
64158;BME280;50449;51.528;5.076;2023-02-13T04:32:05;103550.31;;;8.66;68.13
64158;BME280;50449;51.528;5.076;2023-02-13T04:34:30;103547.59;;;8.66;68.12
64158;BME280;50449;51.528;5.076;2023-02-13T04:36:55;103550.47;;;8.65;68.04
64158;BME280;50449;51.528;5.076;2023-02-13T04:39:21;103546.06;;;8.64;68.14
64158;BME280;50449;51.528;5.076;2023-02-13T04:41:46;103544.41;;;8.63;67.91
64158;BME280;50449;51.528;5.076;2023-02-13T04:44:11;103542.72;;;8.62;67.96
64158;BME280;50449;51.528;5.076;2023-02-13T04:46:37;103534.78;;;8.60;68.04
64158;BME280;50449;51.528;5.076;2023-02-13T04:49:02;103540.34;;;8.59;68.29
64158;BME280;50449;51.528;5.076;2023-02-13T04:51:28;103534.94;;;8.59;68.21
64158;BME280;50449;51.528;5.076;2023-02-13T04:53:53;103544.03;;;8.58;68.27
64158;BME280;50449;51.528;5.076;2023-02-13T04:56:18;103544.19;;;8.56;68.22
64158;BME280;50449;51.528;5.076;2023-02-13T04:58:44;103534.44;;;8.55;68.24
64158;BME280;50449;51.528;5.076;2023-02-13T05:01:14;103539.13;;;8.53;68.01
64158;BME280;50449;51.528;5.076;2023-02-13T05:03:40;103529.38;;;8.52;68.30
64158;BME280;50449;51.528;5.076;2023-02-13T05:06:05;103531.22;;;8.52;68.34
64158;BME280;50449;51.528;5.076;2023-02-13T05:08:31;103534.06;;;8.50;68.22
64158;BME280;50449;51.528;5.076;2023-02-13T05:10:56;103537.75;;;8.49;68.24
64158;BME280;50449;51.528;5.076;2023-02-13T05:13:22;103532.53;;;8.48;68.24
64158;BME280;50449;51.528;5.076;2023-02-13T05:15:48;103539.78;;;8.47;67.95
64158;BME280;50449;51.528;5.076;2023-02-13T05:18:13;103539.94;;;8.45;68.22
64158;BME280;50449;51.528;5.076;2023-02-13T05:20:40;103541.94;;;8.43;68.40
64158;BME280;50449;51.528;5.076;2023-02-13T05:23:12;103542.13;;;8.42;68.06
64158;BME280;50449;51.528;5.076;2023-02-13T05:25:47;103543.09;;;8.41;68.23
64158;BME280;50449;51.528;5.076;2023-02-13T05:28:13;103542.38;;;8.39;68.30
64158;BME280;50449;51.528;5.076;2023-02-13T05:30:57;103545.25;;;8.37;68.10
64158;BME280;50449;51.528;5.076;2023-02-13T05:33:23;103548.09;;;8.36;68.32
64158;BME280;50449;51.528;5.076;2023-02-13T05:35:48;103556.34;;;8.34;68.31
64158;BME280;50449;51.528;5.076;2023-02-13T05:38:14;103541.16;;;8.33;68.03
64158;BME280;50449;51.528;5.076;2023-02-13T05:40:39;103538.66;;;8.32;68.07
64158;BME280;50449;51.528;5.076;2023-02-13T05:43:04;103541.50;;;8.30;68.20
64158;BME280;50449;51.528;5.076;2023-02-13T05:45:30;103538.81;;;8.30;68.46
64158;BME280;50449;51.528;5.076;2023-02-13T05:47:55;103541.66;;;8.29;68.23
64158;BME280;50449;51.528;5.076;2023-02-13T05:50:20;103535.59;;;8.27;68.05
64158;BME280;50449;51.528;5.076;2023-02-13T05:52:46;103535.75;;;8.25;68.48
64158;BME280;50449;51.528;5.076;2023-02-13T05:55:11;103536.75;;;8.24;68.19
64158;BME280;50449;51.528;5.076;2023-02-13T05:57:36;103546.66;;;8.23;68.36
64158;BME280;50449;51.528;5.076;2023-02-13T06:00:04;103542.44;;;8.21;67.95
64158;BME280;50449;51.528;5.076;2023-02-13T06:02:29;103546.00;;;8.21;68.48
64158;BME280;50449;51.528;5.076;2023-02-13T06:04:55;103548.00;;;8.19;68.35
64158;BME280;50449;51.528;5.076;2023-02-13T06:07:20;103546.28;;;8.18;68.24
64158;BME280;50449;51.528;5.076;2023-02-13T06:09:45;103548.28;;;8.16;68.44
64158;BME280;50449;51.528;5.076;2023-02-13T06:12:11;103554.69;;;8.15;68.27
64158;BME280;50449;51.528;5.076;2023-02-13T06:14:36;103554.84;;;8.14;68.11
64158;BME280;50449;51.528;5.076;2023-02-13T06:17:02;103544.25;;;8.12;68.32
64158;BME280;50449;51.528;5.076;2023-02-13T06:19:36;103546.25;;;8.10;68.32
64158;BME280;50449;51.528;5.076;2023-02-13T06:22:01;103544.56;;;8.09;68.18
64158;BME280;50449;51.528;5.076;2023-02-13T06:24:27;103550.94;;;8.08;68.45
64158;BME280;50449;51.528;5.076;2023-02-13T06:26:52;103547.41;;;8.08;68.35
64158;BME280;50449;51.528;5.076;2023-02-13T06:29:18;103539.66;;;8.05;68.21
64158;BME280;50449;51.528;5.076;2023-02-13T06:31:43;103550.41;;;8.05;68.39
64158;BME280;50449;51.528;5.076;2023-02-13T06:34:08;103547.03;;;8.02;68.29
64158;BME280;50449;51.528;5.076;2023-02-13T06:36:34;103553.44;;;8.01;68.28
64158;BME280;50449;51.528;5.076;2023-02-13T06:39:01;103550.88;;;8.00;68.29
64158;BME280;50449;51.528;5.076;2023-02-13T06:41:27;103554.59;;;7.99;68.24
64158;BME280;50449;51.528;5.076;2023-02-13T06:43:52;103552.03;;;7.97;68.34
64158;BME280;50449;51.528;5.076;2023-02-13T06:46:18;103546.78;;;7.96;68.10
64158;BME280;50449;51.528;5.076;2023-02-13T06:48:43;103548.81;;;7.94;68.53
64158;BME280;50449;51.528;5.076;2023-02-13T06:51:08;103539.03;;;7.93;68.24
64158;BME280;50449;51.528;5.076;2023-02-13T06:53:37;103554.34;;;7.92;68.16
64158;BME280;50449;51.528;5.076;2023-02-13T06:56:04;103549.13;;;7.91;68.04
64158;BME280;50449;51.528;5.076;2023-02-13T06:58:32;103549.28;;;7.89;68.10
64158;BME280;50449;51.528;5.076;2023-02-13T07:00:58;103546.75;;;7.88;68.29
64158;BME280;50449;51.528;5.076;2023-02-13T07:03:23;103546.03;;;7.86;67.86
64158;BME280;50449;51.528;5.076;2023-02-13T07:05:49;103544.38;;;7.85;68.22
64158;BME280;50449;51.528;5.076;2023-02-13T07:08:16;103548.03;;;7.84;68.20
64158;BME280;50449;51.528;5.076;2023-02-13T07:10:45;103552.75;;;7.82;68.06
64158;BME280;50449;51.528;5.076;2023-02-13T07:13:11;103554.59;;;7.81;68.20
64158;BME280;50449;51.528;5.076;2023-02-13T07:15:37;103562.84;;;7.79;68.18
64158;BME280;50449;51.528;5.076;2023-02-13T07:18:02;103557.59;;;7.78;68.31
64158;BME280;50449;51.528;5.076;2023-02-13T07:20:28;103560.47;;;7.76;68.09
64158;BME280;50449;51.528;5.076;2023-02-13T07:22:58;103562.44;;;7.74;68.11
64158;BME280;50449;51.528;5.076;2023-02-13T07:25:24;103561.59;;;7.74;68.15
64158;BME280;50449;51.528;5.076;2023-02-13T07:27:49;103557.38;;;7.71;68.28
64158;BME280;50449;51.528;5.076;2023-02-13T07:32:51;103560.22;;;7.70;67.98
64158;BME280;50449;51.528;5.076;2023-02-13T07:35:16;103563.91;;;7.69;68.09
64158;BME280;50449;51.528;5.076;2023-02-13T07:37:42;103560.53;;;7.67;68.17
64158;BME280;50449;51.528;5.076;2023-02-13T07:40:08;103559.69;;;7.66;68.26
64158;BME280;50449;51.528;5.076;2023-02-13T07:42:33;103565.22;;;7.65;68.29
64158;BME280;50449;51.528;5.076;2023-02-13T07:44:59;103566.22;;;7.64;68.24
64158;BME280;50449;51.528;5.076;2023-02-13T07:47:24;103572.59;;;7.63;68.24
64158;BME280;50449;51.528;5.076;2023-02-13T07:49:49;103574.44;;;7.62;68.22
64158;BME280;50449;51.528;5.076;2023-02-13T07:52:15;103570.06;;;7.61;68.14
64158;BME280;50449;51.528;5.076;2023-02-13T07:54:40;103573.75;;;7.60;68.11
64158;BME280;50449;51.528;5.076;2023-02-13T07:57:12;103573.03;;;7.58;68.09
64158;BME280;50449;51.528;5.076;2023-02-13T07:59:38;103575.91;;;7.56;68.21
64158;BME280;50449;51.528;5.076;2023-02-13T08:02:03;103575.91;;;7.56;68.31
64158;BME280;50449;51.528;5.076;2023-02-13T08:04:29;103569.81;;;7.54;68.45
64158;BME280;50449;51.528;5.076;2023-02-13T08:06:54;103575.22;;;7.54;68.27
64158;BME280;50449;51.528;5.076;2023-02-13T08:09:20;103573.66;;;7.52;68.03
64158;BME280;50449;51.528;5.076;2023-02-13T08:12:06;103580.03;;;7.51;68.09
64158;BME280;50449;51.528;5.076;2023-02-13T08:14:31;103582.03;;;7.49;68.10
64158;BME280;50449;51.528;5.076;2023-02-13T08:16:58;103590.13;;;7.49;68.25
64158;BME280;50449;51.528;5.076;2023-02-13T08:19:24;103593.66;;;7.49;68.13
64158;BME280;50449;51.528;5.076;2023-02-13T08:21:49;103593.78;;;7.48;68.01
64158;BME280;50449;51.528;5.076;2023-02-13T08:24:15;103593.97;;;7.46;68.24
64158;BME280;50449;51.528;5.076;2023-02-13T08:26:40;103592.25;;;7.45;68.31
64158;BME280;50449;51.528;5.076;2023-02-13T08:29:06;103599.47;;;7.45;68.07
64158;BME280;50449;51.528;5.076;2023-02-13T08:31:31;103600.50;;;7.44;67.95
64158;BME280;50449;51.528;5.076;2023-02-13T08:33:57;103598.78;;;7.43;68.26
64158;BME280;50449;51.528;5.076;2023-02-13T08:36:23;103606.00;;;7.42;68.17
64158;BME280;50449;51.528;5.076;2023-02-13T08:38:48;103603.44;;;7.41;68.38
64158;BME280;50449;51.528;5.076;2023-02-13T08:41:14;103600.75;;;7.41;68.16
64158;BME280;50449;51.528;5.076;2023-02-13T08:43:42;103597.41;;;7.39;68.28
64158;BME280;50449;51.528;5.076;2023-02-13T08:46:07;103603.63;;;7.39;68.15
64158;BME280;50449;51.528;5.076;2023-02-13T08:48:33;103604.78;;;7.36;68.28
64158;BME280;50449;51.528;5.076;2023-02-13T08:50:58;103607.47;;;7.36;68.43
64158;BME280;50449;51.528;5.076;2023-02-13T08:53:24;103604.06;;;7.34;68.32
64158;BME280;50449;51.528;5.076;2023-02-13T08:55:56;103607.59;;;7.35;68.28
64158;BME280;50449;51.528;5.076;2023-02-13T08:58:22;103611.31;;;7.34;68.40
64158;BME280;50449;51.528;5.076;2023-02-13T09:00:47;103611.31;;;7.34;68.29
64158;BME280;50449;51.528;5.076;2023-02-13T09:03:13;103604.22;;;7.33;68.46
64158;BME280;50449;51.528;5.076;2023-02-13T09:05:38;103607.91;;;7.32;68.48
64158;BME280;50449;51.528;5.076;2023-02-13T09:08:04;103611.44;;;7.32;68.25
64158;BME280;50449;51.528;5.076;2023-02-13T09:10:31;103608.91;;;7.31;68.34
64158;BME280;50449;51.528;5.076;2023-02-13T09:12:56;103603.53;;;7.31;68.72
64158;BME280;50449;51.528;5.076;2023-02-13T09:15:22;103613.44;;;7.30;68.37
64158;BME280;50449;51.528;5.076;2023-02-13T09:17:47;103614.44;;;7.29;68.30
64158;BME280;50449;51.528;5.076;2023-02-13T09:20:13;103614.44;;;7.29;68.25
64158;BME280;50449;51.528;5.076;2023-02-13T09:22:39;103608.03;;;7.30;68.51
64158;BME280;50449;51.528;5.076;2023-02-13T09:25:05;103610.72;;;7.30;68.38
64158;BME280;50449;51.528;5.076;2023-02-13T09:27:31;103607.38;;;7.28;68.43
64158;BME280;50449;51.528;5.076;2023-02-13T09:29:58;103618.13;;;7.28;68.20
64158;BME280;50449;51.528;5.076;2023-02-13T09:32:24;103612.75;;;7.28;68.30
64158;BME280;50449;51.528;5.076;2023-02-13T09:34:49;103616.28;;;7.29;68.36
64158;BME280;50449;51.528;5.076;2023-02-13T09:37:14;103612.75;;;7.28;68.43
64158;BME280;50449;51.528;5.076;2023-02-13T09:39:40;103612.75;;;7.28;68.25
64158;BME280;50449;51.528;5.076;2023-02-13T09:42:16;103615.44;;;7.28;68.22
64158;BME280;50449;51.528;5.076;2023-02-13T09:44:44;103614.56;;;7.28;68.31
64158;BME280;50449;51.528;5.076;2023-02-13T09:47:31;103619.94;;;7.28;68.29
64158;BME280;50449;51.528;5.076;2023-02-13T09:52:34;103615.59;;;7.27;68.34
64158;BME280;50449;51.528;5.076;2023-02-13T09:55:02;103620.13;;;7.26;68.14
64158;BME280;50449;51.528;5.076;2023-02-13T09:57:43;103611.03;;;7.27;67.97
64158;BME280;50449;51.528;5.076;2023-02-13T10:03:18;103613.72;;;7.27;68.21
64158;BME280;50449;51.528;5.076;2023-02-13T10:11:27;103612.91;;;7.27;68.00
64158;BME280;50449;51.528;5.076;2023-02-13T10:19:41;103608.53;;;7.26;68.25
64158;BME280;50449;51.528;5.076;2023-02-13T10:22:30;103608.53;;;7.26;68.43
64158;BME280;50449;51.528;5.076;2023-02-13T10:25:34;103607.66;;;7.25;68.50
64158;BME280;50449;51.528;5.076;2023-02-13T10:28:11;103605.84;;;7.26;68.16
64158;BME280;50449;51.528;5.076;2023-02-13T10:30:54;103611.22;;;7.26;68.22
64158;BME280;50449;51.528;5.076;2023-02-13T10:35:56;103601.28;;;7.26;68.24
64158;BME280;50449;51.528;5.076;2023-02-13T10:38:23;103607.50;;;7.27;68.16
64158;BME280;50449;51.528;5.076;2023-02-13T10:43:47;103599.44;;;7.27;68.30
64158;BME280;50449;51.528;5.076;2023-02-13T10:46:38;103600.28;;;7.27;68.50
64158;BME280;50449;51.528;5.076;2023-02-13T10:49:33;103598.44;;;7.28;68.69
64158;BME280;50449;51.528;5.076;2023-02-13T10:52:24;103594.91;;;7.27;68.75
64158;BME280;50449;51.528;5.076;2023-02-13T10:57:44;103588.56;;;7.28;68.36
64158;BME280;50449;51.528;5.076;2023-02-13T11:03:27;103580.63;;;7.27;68.82
64158;BME280;50449;51.528;5.076;2023-02-13T11:05:54;103578.94;;;7.26;68.80
64158;BME280;50449;51.528;5.076;2023-02-13T11:08:25;103583.31;;;7.27;68.79
64158;BME280;50449;51.528;5.076;2023-02-13T11:10:51;103572.56;;;7.27;69.07
64158;BME280;50449;51.528;5.076;2023-02-13T11:13:22;103575.13;;;7.28;69.24
64158;BME280;50449;51.528;5.076;2023-02-13T11:16:05;103567.03;;;7.28;69.36
64158;BME280;50449;51.528;5.076;2023-02-13T11:18:34;103569.72;;;7.28;69.33
64158;BME280;50449;51.528;5.076;2023-02-13T11:21:20;103565.19;;;7.29;69.46
64158;BME280;50449;51.528;5.076;2023-02-13T11:23:52;103565.91;;;7.31;69.34
64158;BME280;50449;51.528;5.076;2023-02-13T11:26:23;103562.91;;;7.34;69.68
64158;BME280;50449;51.528;5.076;2023-02-13T11:28:57;103556.69;;;7.33;69.58
64158;BME280;50449;51.528;5.076;2023-02-13T11:31:35;103555.53;;;7.36;69.66
64158;BME280;50449;51.528;5.076;2023-02-13T11:34:25;103559.91;;;7.37;69.73
64158;BME280;50449;51.528;5.076;2023-02-13T11:39:44;103550.69;;;7.40;69.87
64158;BME280;50449;51.528;5.076;2023-02-13T11:42:15;103547.16;;;7.39;69.85
64158;BME280;50449;51.528;5.076;2023-02-13T11:44:42;103549.66;;;7.41;69.95
64158;BME280;50449;51.528;5.076;2023-02-13T11:47:08;103548.69;;;7.42;70.14
64158;BME280;50449;51.528;5.076;2023-02-13T11:49:37;103553.91;;;7.43;70.08
64158;BME280;50449;51.528;5.076;2023-02-13T11:52:05;103544.84;;;7.44;70.32
64158;BME280;50449;51.528;5.076;2023-02-13T11:54:41;103544.69;;;7.46;70.33
64158;BME280;50449;51.528;5.076;2023-02-13T11:59:42;103529.41;;;7.46;70.51
64158;BME280;50449;51.528;5.076;2023-02-13T12:04:38;103529.22;;;7.48;70.58
64158;BME280;50449;51.528;5.076;2023-02-13T12:09:39;103524.69;;;7.48;70.38
64158;BME280;50449;51.528;5.076;2023-02-13T12:12:06;103524.69;;;7.48;70.44
64158;BME280;50449;51.528;5.076;2023-02-13T12:14:42;103514.81;;;7.49;70.34
64158;BME280;50449;51.528;5.076;2023-02-13T12:17:15;103519.19;;;7.50;70.39
64158;BME280;50449;51.528;5.076;2023-02-13T12:19:44;103515.47;;;7.51;69.83
64158;BME280;50449;51.528;5.076;2023-02-13T12:22:29;103507.41;;;7.51;70.33
64158;BME280;50449;51.528;5.076;2023-02-13T12:44:01;103478.88;;;7.58;70.29
64158;BME280;50449;51.528;5.076;2023-02-13T12:46:48;103485.97;;;7.59;70.33
64158;BME280;50449;51.528;5.076;2023-02-13T12:58:17;103472.91;;;7.64;70.09
64158;BME280;50449;51.528;5.076;2023-02-13T13:03:32;103462.84;;;7.66;70.07
64158;BME280;50449;51.528;5.076;2023-02-13T13:08:59;103459.84;;;7.69;70.02
64158;BME280;50449;51.528;5.076;2023-02-13T13:14:30;103456.81;;;7.72;69.90
64158;BME280;50449;51.528;5.076;2023-02-13T13:20:34;103459.19;;;7.75;70.04
64158;BME280;50449;51.528;5.076;2023-02-13T13:23:14;103454.50;;;7.77;70.17
64158;BME280;50449;51.528;5.076;2023-02-13T13:28:23;103459.56;;;7.80;70.08
64158;BME280;50449;51.528;5.076;2023-02-13T13:30:51;103453.84;;;7.84;70.02
64158;BME280;50449;51.528;5.076;2023-02-13T13:33:21;103446.47;;;7.86;70.03
64158;BME280;50449;51.528;5.076;2023-02-13T13:40:53;103444.16;;;7.91;69.90
64158;BME280;50449;51.528;5.076;2023-02-13T13:43:39;103446.56;;;7.94;69.98
64158;BME280;50449;51.528;5.076;2023-02-13T13:46:23;103436.44;;;7.96;70.04
64158;BME280;50449;51.528;5.076;2023-02-13T13:51:35;103427.22;;;7.98;70.00
64158;BME280;50449;51.528;5.076;2023-02-13T14:00:21;103421.34;;;8.03;69.77
64158;BME280;50449;51.528;5.076;2023-02-13T14:07:45;103432.34;;;8.10;69.57
64158;BME280;50449;51.528;5.076;2023-02-13T14:10:52;103423.25;;;8.11;69.95
64158;BME280;50449;51.528;5.076;2023-02-13T14:13:02;103420.41;;;8.12;69.70
64158;BME280;50449;51.528;5.076;2023-02-13T14:20:42;103410.00;;;8.17;69.80
64158;BME280;50449;51.528;5.076;2023-02-13T14:23:27;103411.50;;;8.20;69.62
64158;BME280;50449;51.528;5.076;2023-02-13T14:28:41;103406.63;;;8.23;69.43
64158;BME280;50449;51.528;5.076;2023-02-13T14:31:15;103408.34;;;8.24;69.48
64158;BME280;50449;51.528;5.076;2023-02-13T14:33:56;103403.66;;;8.27;69.49
64158;BME280;50449;51.528;5.076;2023-02-13T14:36:27;103403.47;;;8.28;69.17
64158;BME280;50449;51.528;5.076;2023-02-13T14:38:59;103408.53;;;8.31;69.40
64158;BME280;50449;51.528;5.076;2023-02-13T14:44:19;103394.91;;;8.33;69.21
64158;BME280;50449;51.528;5.076;2023-02-13T14:46:48;103402.84;;;8.34;69.35
64158;BME280;50449;51.528;5.076;2023-02-13T14:49:27;103406.03;;;8.38;69.20
64158;BME280;50449;51.528;5.076;2023-02-13T14:51:56;103398.66;;;8.40;69.05
64158;BME280;50449;51.528;5.076;2023-02-13T14:54:36;103387.91;;;8.40;69.17
64158;BME280;50449;51.528;5.076;2023-02-13T14:57:06;103395.66;;;8.43;68.78
64158;BME280;50449;51.528;5.076;2023-02-13T14:59:35;103392.63;;;8.46;68.86
64158;BME280;50449;51.528;5.076;2023-02-13T15:02:22;103380.84;;;8.47;68.87
64158;BME280;50449;51.528;5.076;2023-02-13T15:04:54;103386.06;;;8.49;69.11
64158;BME280;50449;51.528;5.076;2023-02-13T15:07:25;103380.53;;;8.50;68.94
64158;BME280;50449;51.528;5.076;2023-02-13T15:09:56;103380.38;;;8.52;69.08
64158;BME280;50449;51.528;5.076;2023-02-13T15:14:49;103379.34;;;8.61;68.61
64158;BME280;50449;51.528;5.076;2023-02-13T15:17:21;103376.31;;;8.64;68.54
64158;BME280;50449;51.528;5.076;2023-02-13T15:19:51;103369.94;;;8.65;68.58
64158;BME280;50449;51.528;5.076;2023-02-13T15:22:35;103365.41;;;8.65;68.59
64158;BME280;50449;51.528;5.076;2023-02-13T15:25:02;103365.25;;;8.67;68.47
64158;BME280;50449;51.528;5.076;2023-02-13T15:27:34;103353.44;;;8.68;68.72
64158;BME280;50449;51.528;5.076;2023-02-13T15:32:35;103359.34;;;8.72;68.60
64158;BME280;50449;51.528;5.076;2023-02-13T15:35:24;103362.72;;;8.74;68.54
64158;BME280;50449;51.528;5.076;2023-02-13T15:37:49;103358.16;;;8.74;68.53
64158;BME280;50449;51.528;5.076;2023-02-13T15:40:25;103360.69;;;8.76;68.59
64158;BME280;50449;51.528;5.076;2023-02-13T15:42:51;103350.75;;;8.76;68.38
64158;BME280;50449;51.528;5.076;2023-02-13T15:45:19;103355.16;;;8.77;68.33